createdAt,value
2022-09-23T00:01:10.786Z,100917.22
2022-09-23T00:06:58.060Z,100919.41
2022-09-23T00:09:24.426Z,100920.13
2022-09-23T00:11:50.711Z,100928.16
2022-09-23T00:14:17.602Z,100926.22
2022-09-23T00:16:43.976Z,100919.56
2022-09-23T00:19:10.433Z,100922.25
2022-09-23T00:21:37.008Z,100923.94
2022-09-23T00:24:03.665Z,100922.13
2022-09-23T00:26:29.970Z,100918.88
2022-09-23T00:28:56.312Z,100919.44
2022-09-23T00:31:26.093Z,100915.88
2022-09-23T00:33:57.102Z,100920.47
2022-09-23T00:36:24.112Z,100923.72
2022-09-23T00:38:50.849Z,100918.28
2022-09-23T00:41:17.415Z,100916.34
2022-09-23T00:43:49.901Z,100919.00
2022-09-23T00:46:26.228Z,100916.66
2022-09-23T00:48:59.925Z,100917.19
2022-09-23T00:51:34.337Z,100904.06
2022-09-23T00:54:02.023Z,100915.59
2022-09-23T00:56:30.468Z,100906.81
2022-09-23T00:58:56.845Z,100902.31
2022-09-23T01:01:24.766Z,100901.59
2022-09-23T01:03:51.453Z,100899.56
2022-09-23T01:06:17.798Z,100897.81
2022-09-23T01:08:45.934Z,100894.19
2022-09-23T01:11:30.229Z,100893.97
2022-09-23T01:14:28.141Z,100893.72
2022-09-23T01:17:19.301Z,100892.13
2022-09-23T01:20:11.257Z,100889.47
2022-09-23T01:22:44.075Z,100892.88
2022-09-23T01:25:48.104Z,100890.31
2022-09-23T01:28:36.161Z,100887.03
2022-09-23T01:31:23.454Z,100888.00
2022-09-23T01:34:02.381Z,100885.53
2022-09-23T01:36:39.648Z,100881.16
2022-09-23T01:39:16.643Z,100883.84
2022-09-23T01:42:12.999Z,100877.75
2022-09-23T01:44:48.734Z,100876.47
2022-09-23T01:47:43.500Z,100872.66
2022-09-23T01:50:35.141Z,100869.09
2022-09-23T01:53:06.064Z,100868.34
2022-09-23T01:55:37.762Z,100882.09
2022-09-23T01:58:15.626Z,100875.50
2022-09-23T02:00:51.211Z,100873.41
2022-09-23T02:03:26.724Z,100871.50
2022-09-23T02:06:01.390Z,100865.09
2022-09-23T02:08:46.812Z,100873.88
2022-09-23T02:11:15.445Z,100869.28
2022-09-23T02:14:06.673Z,100874.75
2022-09-23T02:16:42.400Z,100873.91
2022-09-23T02:19:14.023Z,100873.91
2022-09-23T02:21:43.934Z,100866.72
2022-09-23T02:24:25.761Z,100869.41
2022-09-23T02:26:58.644Z,100864.03
2022-09-23T02:29:32.917Z,100859.13
2022-09-23T02:32:03.981Z,100865.69
2022-09-23T02:34:58.972Z,100858.72
2022-09-23T02:37:27.408Z,100853.25
2022-09-23T02:40:12.668Z,100859.88
2022-09-23T02:43:21.067Z,100850.59
2022-09-23T02:45:47.938Z,100850.94
2022-09-23T02:48:20.111Z,100852.19
2022-09-23T02:50:47.638Z,100844.19
2022-09-23T02:53:16.051Z,100844.06
2022-09-23T02:55:42.941Z,100837.75
2022-09-23T02:58:12.632Z,100833.69
2022-09-23T03:01:10.838Z,100831.50
2022-09-23T03:03:55.403Z,100831.50
2022-09-23T03:06:29.175Z,100836.50
2022-09-23T03:09:28.809Z,100829.56
2022-09-23T03:12:15.509Z,100830.41
2022-09-23T03:15:19.341Z,100832.47
2022-09-23T03:17:49.699Z,100820.91
2022-09-23T03:20:29.346Z,100825.38
2022-09-23T03:23:00.973Z,100819.56
2022-09-23T03:25:31.679Z,100821.97
2022-09-23T03:28:01.045Z,100826.47
2022-09-23T03:30:28.703Z,100817.09
2022-09-23T03:32:59.842Z,100819.03
2022-09-23T03:35:30.509Z,100819.75
2022-09-23T03:38:03.374Z,100818.81
2022-09-23T03:40:34.614Z,100833.88
2022-09-23T03:43:03.235Z,100819.03
2022-09-23T03:45:32.979Z,100809.31
2022-09-23T03:47:59.830Z,100812.22
2022-09-23T03:50:27.015Z,100817.75
2022-09-23T03:52:53.314Z,100809.44
2022-09-23T03:55:20.234Z,100807.13
2022-09-23T03:57:46.706Z,100812.91
2022-09-23T04:00:14.520Z,100805.00
2022-09-23T04:02:41.574Z,100812.28
2022-09-23T04:05:09.813Z,100805.91
2022-09-23T04:07:36.163Z,100806.66
2022-09-23T04:10:02.884Z,100800.16
2022-09-23T04:12:29.211Z,100810.84
2022-09-23T04:14:55.541Z,100805.38
2022-09-23T04:17:21.913Z,100807.44
2022-09-23T04:19:48.205Z,100805.06
2022-09-23T04:22:14.632Z,100804.66
2022-09-23T04:24:40.961Z,100802.81
2022-09-23T04:27:07.290Z,100805.97
2022-09-23T04:29:33.588Z,100806.47
2022-09-23T04:31:59.993Z,100803.59
2022-09-23T04:34:26.418Z,100812.03
2022-09-23T04:36:52.756Z,100809.91
2022-09-23T04:39:19.196Z,100804.22
2022-09-23T04:41:46.198Z,100800.69
2022-09-23T04:44:13.774Z,100804.22
2022-09-23T04:46:41.517Z,100799.53
2022-09-23T04:49:08.362Z,100795.91
2022-09-23T04:51:34.847Z,100802.44
2022-09-23T04:54:01.347Z,100797.94
2022-09-23T04:56:32.067Z,100806.50
2022-09-23T04:58:58.400Z,100808.31
2022-09-23T05:01:27.320Z,100805.41
2022-09-23T05:04:05.330Z,100802.44
2022-09-23T05:06:37.038Z,100802.31
2022-09-23T05:09:06.707Z,100806.56
2022-09-23T05:11:34.375Z,100803.91
2022-09-23T05:14:00.969Z,100810.94
2022-09-23T05:16:27.421Z,100808.06
2022-09-23T05:18:54.137Z,100813.09
2022-09-23T05:21:23.256Z,100809.34
2022-09-23T05:23:55.041Z,100814.28
2022-09-23T05:26:25.214Z,100811.06
2022-09-23T05:28:52.361Z,100821.31
2022-09-23T05:31:20.802Z,100816.81
2022-09-23T05:33:53.825Z,100816.47
2022-09-23T05:36:21.818Z,100816.59
2022-09-23T05:38:49.749Z,100813.81
2022-09-23T05:41:17.207Z,100816.16
2022-09-23T05:43:43.585Z,100820.78
2022-09-23T05:46:18.496Z,100824.28
2022-09-23T05:48:47.983Z,100826.84
2022-09-23T05:51:17.248Z,100828.00
2022-09-23T05:53:47.560Z,100831.53
2022-09-23T05:56:16.933Z,100843.72
2022-09-23T05:58:43.677Z,100835.59
2022-09-23T06:01:11.801Z,100836.22
2022-09-23T06:03:39.392Z,100829.38
2022-09-23T06:06:06.792Z,100831.59
2022-09-23T06:08:37.047Z,100824.63
2022-09-23T06:11:07.574Z,100824.06
2022-09-23T06:13:38.853Z,100827.38
2022-09-23T06:16:14.097Z,100825.56
2022-09-23T06:18:41.915Z,100819.56
2022-09-23T06:21:11.569Z,100818.59
2022-09-23T06:23:41.034Z,100816.63
2022-09-23T06:26:10.860Z,100815.66
2022-09-23T06:28:38.919Z,100814.94
2022-09-23T06:31:12.929Z,100810.41
2022-09-23T06:33:40.206Z,100808.09
2022-09-23T06:36:07.751Z,100806.06
2022-09-23T06:38:34.325Z,100803.28
2022-09-23T06:41:01.950Z,100799.75
2022-09-23T06:43:28.400Z,100810.22
2022-09-23T06:45:56.547Z,100805.88
2022-09-23T06:48:24.636Z,100803.47
2022-09-23T06:50:53.550Z,100811.28
2022-09-23T06:53:24.398Z,100809.47
2022-09-23T06:56:02.353Z,100811.28
2022-09-23T06:58:30.232Z,100820.63
2022-09-23T07:01:08.179Z,100808.88
2022-09-23T07:06:27.231Z,100804.91
2022-09-23T07:08:53.519Z,100812.00
2022-09-23T07:11:22.356Z,100809.59
2022-09-23T07:13:48.679Z,100809.81
2022-09-23T07:16:15.021Z,100802.41
2022-09-23T07:18:42.569Z,100814.22
2022-09-23T07:21:15.214Z,100807.16
2022-09-23T07:23:43.109Z,100817.50
2022-09-23T07:26:09.899Z,100812.16
2022-09-23T07:28:37.107Z,100819.72
2022-09-23T07:31:10.572Z,100810.72
2022-09-23T07:33:39.912Z,100814.63
2022-09-23T07:36:14.966Z,100814.63
2022-09-23T07:38:45.268Z,100816.47
2022-09-23T07:41:15.947Z,100819.38
2022-09-23T07:43:44.143Z,100820.94
2022-09-23T07:46:14.305Z,100822.13
2022-09-23T07:48:41.049Z,100826.00
2022-09-23T07:51:20.190Z,100818.72
2022-09-23T07:53:49.024Z,100825.75
2022-09-23T07:56:16.270Z,100815.03
2022-09-23T07:58:42.656Z,100820.88
2022-09-23T08:01:10.832Z,100823.78
2022-09-23T08:03:38.008Z,100825.78
2022-09-23T08:06:07.298Z,100827.78
2022-09-23T08:08:34.229Z,100831.53
2022-09-23T08:11:03.154Z,100830.28
2022-09-23T08:13:30.777Z,100832.47
2022-09-23T08:15:58.073Z,100838.94
2022-09-23T08:18:24.879Z,100834.47
2022-09-23T08:20:52.035Z,100840.91
2022-09-23T08:23:19.664Z,100838.72
2022-09-23T08:25:47.173Z,100837.31
2022-09-23T08:28:18.971Z,100824.66
2022-09-23T08:30:48.406Z,100836.34
2022-09-23T08:33:17.476Z,100830.28
2022-09-23T08:35:46.058Z,100821.25
2022-09-23T08:38:12.374Z,100827.72
2022-09-23T08:40:44.339Z,100822.25
2022-09-23T08:43:22.210Z,100815.69
2022-09-23T08:45:51.018Z,100819.38
2022-09-23T08:48:27.116Z,100817.09
2022-09-23T08:50:59.346Z,100808.81
2022-09-23T08:53:29.426Z,100814.25
2022-09-23T08:55:59.240Z,100810.94
2022-09-23T08:59:07.481Z,100810.94
2022-09-23T09:01:45.066Z,100816.69
2022-09-23T09:04:36.426Z,100811.03
2022-09-23T09:07:35.233Z,100807.50
2022-09-23T09:10:18.567Z,100802.47
2022-09-23T09:12:47.959Z,100806.97
2022-09-23T09:15:15.800Z,100810.31
2022-09-23T09:18:04.112Z,100802.75
2022-09-23T09:20:50.193Z,100802.38
2022-09-23T09:23:31.509Z,100803.59
2022-09-23T09:26:01.512Z,100795.06
2022-09-23T09:28:48.839Z,100795.53
2022-09-23T09:31:32.166Z,100798.09
2022-09-23T09:34:11.905Z,100793.53
2022-09-23T09:36:54.284Z,100787.22
2022-09-23T09:39:25.447Z,100782.13
2022-09-23T09:41:59.379Z,100777.31
2022-09-23T09:44:37.095Z,100775.03
2022-09-23T09:47:15.061Z,100780.59
2022-09-23T09:49:49.083Z,100755.22
2022-09-23T09:52:22.377Z,100763.53
2022-09-23T09:54:50.821Z,100741.56
2022-09-23T09:57:35.029Z,100748.31
2022-09-23T10:00:18.813Z,100751.69
2022-09-23T10:02:46.436Z,100745.09
2022-09-23T10:05:35.123Z,100738.66
2022-09-23T10:08:22.442Z,100744.63
2022-09-23T10:11:08.032Z,100745.94
2022-09-23T10:13:34.337Z,100749.00
2022-09-23T10:16:03.803Z,100748.63
2022-09-23T10:18:34.410Z,100742.16
2022-09-23T10:21:09.516Z,100752.50
2022-09-23T10:23:40.505Z,100748.69
2022-09-23T10:26:08.575Z,100745.63
2022-09-23T10:28:46.209Z,100740.72
2022-09-23T10:31:25.980Z,100747.56
2022-09-23T10:34:00.216Z,100739.75
2022-09-23T10:36:28.656Z,100745.84
2022-09-23T10:39:16.920Z,100742.97
2022-09-23T10:42:23.317Z,100734.53
2022-09-23T10:45:08.055Z,100737.19
2022-09-23T10:47:40.715Z,100737.00
2022-09-23T10:50:25.359Z,100727.88
2022-09-23T10:53:04.903Z,100720.97
2022-09-23T10:55:49.081Z,100719.19
2022-09-23T10:58:42.994Z,100719.38
2022-09-23T11:01:13.342Z,100716.28
2022-09-23T11:04:07.287Z,100707.63
2022-09-23T11:06:45.919Z,100709.19
2022-09-23T11:09:45.187Z,100707.06
2022-09-23T11:12:48.072Z,100701.41
2022-09-23T11:15:44.584Z,100695.63
2022-09-23T11:18:34.480Z,100703.44
2022-09-23T11:21:20.457Z,100696.72
2022-09-23T11:24:01.506Z,100692.63
2022-09-23T11:26:58.145Z,100681.91
2022-09-23T11:29:45.340Z,100689.22
2022-09-23T11:32:44.989Z,100691.72
2022-09-23T11:35:33.472Z,100693.09
2022-09-23T11:38:12.101Z,100678.25
2022-09-23T11:40:43.923Z,100676.72
2022-09-23T11:43:23.335Z,100669.34
2022-09-23T11:45:59.039Z,100673.00
2022-09-23T11:48:29.908Z,100664.72
2022-09-23T11:51:14.617Z,100669.69
2022-09-23T11:53:47.582Z,100668.09
2022-09-23T11:56:41.687Z,100663.31
2022-09-23T11:59:38.551Z,100651.50
2022-09-23T12:02:33.440Z,100664.16
2022-09-23T12:05:09.150Z,100648.56
2022-09-23T12:08:06.590Z,100658.06
2022-09-23T12:11:00.001Z,100650.81
2022-09-23T12:13:34.152Z,100657.63
2022-09-23T12:16:25.316Z,100642.00
2022-09-23T12:19:21.834Z,100648.13
2022-09-23T12:22:04.791Z,100644.53
2022-09-23T12:25:05.166Z,100630.69
2022-09-23T12:27:45.209Z,100633.66
2022-09-23T12:30:29.763Z,100633.84
2022-09-23T12:33:11.765Z,100632.84
2022-09-23T12:35:41.865Z,100628.72
2022-09-23T12:38:21.248Z,100631.41
2022-09-23T12:40:48.100Z,100623.47
2022-09-23T12:43:49.959Z,100633.41
2022-09-23T12:46:27.160Z,100629.84
2022-09-23T12:48:54.335Z,100617.00
2022-09-23T12:51:21.831Z,100621.00
2022-09-23T12:53:50.600Z,100613.22
2022-09-23T12:56:19.799Z,100614.28
2022-09-23T12:58:46.116Z,100609.78
2022-09-23T13:01:15.746Z,100618.31
2022-09-23T13:04:06.066Z,100621.44
2022-09-23T13:06:41.129Z,100616.44
2022-09-23T13:09:22.366Z,100607.88
2022-09-23T13:11:48.930Z,100608.16
2022-09-23T13:14:21.943Z,100605.63
2022-09-23T13:16:52.071Z,100606.47
2022-09-23T13:19:35.376Z,100593.44
2022-09-23T13:22:08.934Z,100592.97
2022-09-23T13:24:52.105Z,100593.25
2022-09-23T13:27:22.306Z,100583.06
2022-09-23T13:30:02.533Z,100583.25
2022-09-23T13:32:51.544Z,100589.31
2022-09-23T13:35:34.505Z,100580.72
2022-09-23T13:38:29.568Z,100571.88
2022-09-23T13:41:02.906Z,100564.75
2022-09-23T13:43:36.492Z,100564.03
2022-09-23T13:46:22.399Z,100560.94
2022-09-23T13:48:54.522Z,100555.50
2022-09-23T13:51:27.789Z,100561.13
2022-09-23T13:53:56.360Z,100556.34
2022-09-23T13:56:24.818Z,100564.88
2022-09-23T13:58:52.269Z,100555.50
2022-09-23T14:01:34.529Z,100556.34
2022-09-23T14:04:05.063Z,100537.34
2022-09-23T14:06:32.068Z,100541.44
2022-09-23T14:09:02.274Z,100535.16
2022-09-23T14:11:41.355Z,100531.88
2022-09-23T14:14:09.434Z,100529.16
2022-09-23T14:16:39.348Z,100536.28
2022-09-23T14:19:07.897Z,100524.28
2022-09-23T14:21:39.406Z,100521.47
2022-09-23T14:24:19.311Z,100522.59
2022-09-23T14:26:49.623Z,100515.97
2022-09-23T14:29:28.375Z,100515.13
2022-09-23T14:32:00.034Z,100521.56
2022-09-23T14:35:00.971Z,100516.03
2022-09-23T14:37:50.469Z,100504.50
2022-09-23T14:40:18.418Z,100512.00
2022-09-23T14:42:51.267Z,100514.16
2022-09-23T14:45:22.612Z,100504.34
2022-09-23T14:47:52.671Z,100507.41
2022-09-23T14:50:40.275Z,100507.69
2022-09-23T14:53:38.658Z,100493.19
2022-09-23T14:56:20.603Z,100494.22
2022-09-23T14:58:52.818Z,100500.97
2022-09-23T15:01:39.199Z,100496.56
2022-09-23T15:04:22.109Z,100497.19
2022-09-23T15:07:02.276Z,100492.81
2022-09-23T15:09:36.520Z,100490.09
2022-09-23T15:12:08.178Z,100493.72
2022-09-23T15:14:39.844Z,100488.38
2022-09-23T15:17:18.769Z,100485.03
2022-09-23T15:19:46.640Z,100486.50
2022-09-23T15:22:16.393Z,100481.72
2022-09-23T15:24:44.911Z,100489.97
2022-09-23T15:27:24.639Z,100487.00
2022-09-23T15:29:52.220Z,100481.19
2022-09-23T15:32:18.902Z,100471.75
2022-09-23T15:34:45.238Z,100477.19
2022-09-23T15:37:14.660Z,100466.69
2022-09-23T15:39:41.014Z,100470.44
2022-09-23T15:42:10.137Z,100485.16
2022-09-23T15:44:36.684Z,100468.09
2022-09-23T15:47:03.169Z,100489.84
2022-09-23T15:49:35.978Z,100482.47
2022-09-23T15:52:04.647Z,100471.47
2022-09-23T15:54:35.121Z,100479.34
2022-09-23T15:57:01.981Z,100476.34
2022-09-23T15:59:30.786Z,100469.44
2022-09-23T16:02:00.920Z,100473.38
2022-09-23T16:04:28.157Z,100469.31
2022-09-23T16:06:54.463Z,100469.63
2022-09-23T16:09:20.798Z,100466.25
2022-09-23T16:11:49.530Z,100469.31
2022-09-23T16:14:17.373Z,100465.41
2022-09-23T16:16:45.187Z,100468.13
2022-09-23T16:19:12.314Z,100462.22
2022-09-23T16:21:40.714Z,100462.84
2022-09-23T16:24:15.690Z,100467.72
2022-09-23T16:26:43.178Z,100460.66
2022-09-23T16:29:11.456Z,100465.53
2022-09-23T16:31:38.567Z,100458.22
2022-09-23T16:34:05.705Z,100466.25
2022-09-23T16:36:34.651Z,100469.06
2022-09-23T16:39:07.117Z,100456.97
2022-09-23T16:41:33.615Z,100455.63
2022-09-23T16:44:02.051Z,100453.19
2022-09-23T16:46:29.188Z,100450.72
2022-09-23T16:48:57.395Z,100446.78
2022-09-23T16:51:27.008Z,100451.75
2022-09-23T16:53:54.674Z,100450.59
2022-09-23T16:56:28.009Z,100450.84
2022-09-23T16:58:55.292Z,100447.16
2022-09-23T17:01:45.779Z,100455.22
2022-09-23T17:04:13.575Z,100445.53
2022-09-23T17:06:49.865Z,100452.84
2022-09-23T17:09:21.336Z,100451.81
2022-09-23T17:11:57.729Z,100452.72
2022-09-23T17:14:24.272Z,100448.56
2022-09-23T17:16:50.935Z,100447.09
2022-09-23T17:19:17.319Z,100447.63
2022-09-23T17:21:43.629Z,100449.84
2022-09-23T17:24:10.096Z,100452.22
2022-09-23T17:26:36.429Z,100446.53
2022-09-23T17:29:02.901Z,100446.56
2022-09-23T17:31:30.069Z,100440.63
2022-09-23T17:33:56.511Z,100440.84
2022-09-23T17:36:23.262Z,100436.16
2022-09-23T17:38:53.325Z,100437.69
2022-09-23T17:41:20.856Z,100429.94
2022-09-23T17:43:47.469Z,100436.88
2022-09-23T17:46:16.745Z,100435.88
2022-09-23T17:48:44.007Z,100440.63
2022-09-23T17:51:15.987Z,100447.22
2022-09-23T17:53:44.921Z,100439.09
2022-09-23T17:56:17.082Z,100440.28
2022-09-23T17:58:44.590Z,100440.63
2022-09-23T18:01:12.949Z,100438.78
2022-09-23T18:03:43.168Z,100438.63
2022-09-23T18:06:18.052Z,100441.50
2022-09-23T18:08:47.506Z,100438.63
2022-09-23T18:11:14.768Z,100434.25
2022-09-23T18:13:41.124Z,100440.34
2022-09-23T18:16:07.725Z,100433.22
2022-09-23T18:18:34.041Z,100437.13
2022-09-23T18:21:04.693Z,100430.56
2022-09-23T18:23:31.046Z,100428.34
2022-09-23T18:25:57.506Z,100432.41
2022-09-23T18:28:23.823Z,100435.94
2022-09-23T18:30:58.033Z,100446.91
2022-09-23T18:33:24.780Z,100444.38
2022-09-23T18:35:54.445Z,100451.97
2022-09-23T18:38:20.981Z,100451.94
2022-09-23T18:40:56.177Z,100435.56
2022-09-23T18:43:25.723Z,100442.47
2022-09-23T18:45:57.262Z,100438.88
2022-09-23T18:48:41.991Z,100444.16
2022-09-23T18:51:10.242Z,100445.28
2022-09-23T18:53:37.216Z,100441.56
2022-09-23T18:56:12.801Z,100431.75
2022-09-23T18:58:39.530Z,100434.31
2022-09-23T19:01:08.676Z,100430.03
2022-09-23T19:03:36.319Z,100440.69
2022-09-23T19:06:11.548Z,100425.97
2022-09-23T19:08:38.524Z,100428.69
2022-09-23T19:11:06.818Z,100432.59
2022-09-23T19:13:35.048Z,100430.53
2022-09-23T19:16:03.689Z,100427.63
2022-09-23T19:18:31.271Z,100424.94
2022-09-23T19:21:04.907Z,100438.59
2022-09-23T19:23:34.952Z,100428.44
2022-09-23T19:26:10.510Z,100415.72
2022-09-23T19:28:37.671Z,100426.56
2022-09-23T19:31:10.893Z,100420.97
2022-09-23T19:33:38.029Z,100420.63
2022-09-23T19:36:04.649Z,100418.44
2022-09-23T19:38:30.970Z,100432.38
2022-09-23T19:40:57.759Z,100434.53
2022-09-23T19:43:25.060Z,100440.88
2022-09-23T19:45:54.739Z,100435.81
2022-09-23T19:48:21.298Z,100425.16
2022-09-23T19:50:48.251Z,100428.31
2022-09-23T19:53:15.121Z,100423.19
2022-09-23T19:55:41.449Z,100413.41
2022-09-23T19:58:07.736Z,100424.66
2022-09-23T20:00:34.532Z,100413.75
2022-09-23T20:03:00.900Z,100411.81
2022-09-23T20:05:30.036Z,100414.50
2022-09-23T20:07:56.579Z,100414.13
2022-09-23T20:10:22.905Z,100408.22
2022-09-23T20:12:49.955Z,100421.28
2022-09-23T20:15:16.773Z,100403.88
2022-09-23T20:17:43.233Z,100414.84
2022-09-23T20:20:11.010Z,100411.47
2022-09-23T20:22:37.380Z,100410.94
2022-09-23T20:25:04.175Z,100415.78
2022-09-23T20:27:31.501Z,100408.31
2022-09-23T20:29:58.574Z,100403.63
2022-09-23T20:32:25.440Z,100415.44
2022-09-23T20:34:53.389Z,100408.59
2022-09-23T20:37:23.279Z,100418.31
2022-09-23T20:39:51.716Z,100407.00
2022-09-23T20:42:19.890Z,100413.25
2022-09-23T20:44:46.947Z,100412.69
2022-09-23T20:47:18.186Z,100413.31
2022-09-23T20:49:46.195Z,100402.31
2022-09-23T20:52:17.161Z,100407.63
2022-09-23T20:54:43.833Z,100408.13
2022-09-23T20:57:12.914Z,100408.31
2022-09-23T20:59:40.496Z,100406.22
2022-09-23T21:02:07.482Z,100401.16
2022-09-23T21:04:34.899Z,100399.47
2022-09-23T21:07:01.233Z,100401.63
2022-09-23T21:09:29.114Z,100397.69
2022-09-23T21:11:55.604Z,100392.75
2022-09-23T21:14:22.442Z,100381.16
2022-09-23T21:16:50.360Z,100393.47
2022-09-23T21:19:17.544Z,100395.94
2022-09-23T21:21:44.096Z,100386.75
2022-09-23T21:24:53.554Z,100388.59
2022-09-23T21:26:56.681Z,100383.38
2022-09-23T21:29:23.008Z,100394.53
2022-09-23T21:31:49.466Z,100390.84
2022-09-23T21:34:16.037Z,100392.81
2022-09-23T21:36:43.985Z,100386.34
2022-09-23T21:39:11.413Z,100392.63
2022-09-23T21:41:38.366Z,100387.81
2022-09-23T21:44:05.126Z,100386.66
2022-09-23T21:46:35.065Z,100389.50
2022-09-23T21:49:03.608Z,100384.44
2022-09-23T21:51:37.617Z,100388.66
2022-09-23T21:54:05.575Z,100386.81
2022-09-23T21:56:35.041Z,100397.75
2022-09-23T21:59:02.045Z,100389.72
2022-09-23T22:01:34.863Z,100394.09
2022-09-23T22:04:07.669Z,100404.72
2022-09-23T22:06:37.400Z,100404.63
2022-09-23T22:09:10.328Z,100405.16
2022-09-23T22:11:57.375Z,100411.22
2022-09-23T22:14:26.202Z,100420.47
2022-09-23T22:16:57.184Z,100411.69
2022-09-23T22:19:33.047Z,100409.84
2022-09-23T22:21:59.730Z,100398.94
2022-09-23T22:24:26.098Z,100406.84
2022-09-23T22:26:52.668Z,100407.47
2022-09-23T22:29:37.975Z,100399.53
2022-09-23T22:32:28.303Z,100399.38
2022-09-23T22:34:55.429Z,100397.94
2022-09-23T22:37:26.162Z,100407.84
2022-09-23T22:39:53.641Z,100407.00
2022-09-23T22:42:23.588Z,100407.16
2022-09-23T22:44:51.084Z,100414.28
2022-09-23T22:47:18.554Z,100403.84
2022-09-23T22:49:46.214Z,100410.06
2022-09-23T22:52:14.744Z,100406.63
2022-09-23T22:54:41.473Z,100401.00
2022-09-23T22:57:09.047Z,100403.25
2022-09-23T22:59:37.085Z,100391.13
2022-09-23T23:02:03.635Z,100398.19
2022-09-23T23:04:30.144Z,100391.50
2022-09-23T23:06:58.081Z,100391.97
2022-09-23T23:09:24.416Z,100384.34
2022-09-23T23:11:50.696Z,100380.97
2022-09-23T23:14:18.517Z,100377.44
2022-09-23T23:16:45.993Z,100372.19
2022-09-23T23:19:16.737Z,100368.94
2022-09-23T23:21:44.658Z,100363.88
2022-09-23T23:24:24.199Z,100365.41
2022-09-23T23:26:52.335Z,100356.81
2022-09-23T23:29:20.968Z,100357.25
2022-09-23T23:31:48.323Z,100352.75
2022-09-23T23:34:19.850Z,100348.00
2022-09-23T23:36:47.851Z,100357.59
2022-09-23T23:39:14.384Z,100358.72
2022-09-23T23:41:41.426Z,100365.22
2022-09-23T23:44:07.922Z,100361.28
2022-09-23T23:46:35.234Z,100364.56
2022-09-23T23:49:01.725Z,100352.13
2022-09-23T23:51:28.100Z,100360.75
2022-09-23T23:53:55.385Z,100358.09
2022-09-23T23:56:23.889Z,100364.75
2022-09-23T23:59:02.409Z,100357.94
